Time;durP1;ratioP1;P1;durP2;ratioP2;P2;SDS_P1;SDS_P2;PMS_P1;PMS_P2;Temp;Humidity;BMP_temperature;BMP_pressure;BME280_temperature;BME280_humidity;BME280_pressure;Samples;Min_cycle;Max_cycle;Signal;HPM_P1;HPM_P2
2021/12/30 00:00:55;;;;;;;0.10;0.10;;;;;;;9.62;100.00;93006.13;2100177;28;20016;-86
2021/12/30 00:02:00;;;;;;;0.15;0.10;;;;;;;9.68;100.00;93012.47;2099673;28;20016;-85
2021/12/30 00:03:01;;;;;;;0.28;0.20;;;;;;;9.43;100.00;93013.72;2094329;28;20536;-84
2021/12/30 00:04:03;;;;;;;0.32;0.20;;;;;;;9.46;100.00;93026.25;2092627;28;20028;-84
2021/12/30 00:05:05;;;;;;;0.25;0.13;;;;;;;9.51;100.00;93025.00;2101196;28;20453;-85
2021/12/30 00:06:07;;;;;;;0.20;0.20;;;;;;;9.53;100.00;93023.44;2101919;28;20032;-85
2021/12/30 00:07:09;;;;;;;0.10;0.10;;;;;;;9.61;100.00;93020.63;2099403;28;20074;-86
2021/12/30 00:08:10;;;;;;;0.20;0.20;;;;;;;9.42;100.00;93017.53;2105573;28;20027;-86
2021/12/30 00:09:14;;;;;;;0.17;0.17;;;;;;;9.30;100.00;93023.47;2091523;28;20115;-83
2021/12/30 00:10:15;;;;;;;0.20;0.20;;;;;;;9.53;100.00;93033.38;2095081;28;20048;-87
2021/12/30 00:11:16;;;;;;;0.47;0.38;;;;;;;9.49;100.00;93024.69;2106277;28;20043;-86
2021/12/30 00:12:17;;;;;;;0.47;0.30;;;;;;;9.57;100.00;93050.81;2109172;28;20047;-85
2021/12/30 00:13:19;;;;;;;0.20;0.20;;;;;;;9.43;100.00;93035.06;2104059;28;20118;-85
2021/12/30 00:14:24;;;;;;;0.20;0.20;;;;;;;9.51;100.00;93041.75;2098793;28;20031;-86
2021/12/30 00:15:32;;;;;;;0.20;0.20;;;;;;;9.48;100.00;93042.59;2102642;28;20500;-86
2021/12/30 00:16:34;;;;;;;0.20;0.20;;;;;;;9.32;100.00;93032.59;2092411;28;20058;-86
2021/12/30 00:17:35;;;;;;;0.20;0.20;;;;;;;9.28;100.00;93033.81;2103382;28;20641;-85
2021/12/30 00:18:36;;;;;;;0.50;0.30;;;;;;;9.40;100.00;93038.56;2110031;28;20027;-87
2021/12/30 00:19:37;;;;;;;0.55;0.22;;;;;;;9.38;100.00;93054.19;2111761;28;20030;-85
2021/12/30 00:20:38;;;;;;;0.50;0.30;;;;;;;9.42;100.00;93048.81;2101492;28;20020;-86
2021/12/30 00:21:39;;;;;;;1.45;0.30;;;;;;;9.44;100.00;93052.59;2098410;28;20052;-85
2021/12/30 00:22:42;;;;;;;0.60;0.38;;;;;;;9.42;100.00;93048.81;2109598;28;20022;-86
2021/12/30 00:23:43;;;;;;;1.63;0.30;;;;;;;9.38;100.00;93042.78;2100856;28;20052;-87
2021/12/30 00:24:44;;;;;;;0.20;0.20;;;;;;;9.45;100.00;93040.75;2098331;28;20107;-86
2021/12/30 00:25:45;;;;;;;0.60;0.20;;;;;;;9.44;100.00;93051.81;2117131;27;20019;-85
2021/12/30 00:26:46;;;;;;;0.85;0.35;;;;;;;9.42;100.00;93044.22;2113174;28;20038;-87
2021/12/30 00:27:47;;;;;;;0.20;0.20;;;;;;;9.38;100.00;93038.19;2100214;28;20542;-85
2021/12/30 00:28:48;;;;;;;0.20;0.20;;;;;;;9.31;100.00;93035.69;2113467;28;20420;-85
2021/12/30 00:29:50;;;;;;;0.22;0.22;;;;;;;9.20;100.00;93043.09;2099682;28;20061;-86
2021/12/30 00:30:51;;;;;;;1.23;0.30;;;;;;;9.19;100.00;93044.28;2105621;28;20023;-85
2021/12/30 00:31:52;;;;;;;0.30;0.30;;;;;;;9.18;100.00;93045.44;2099479;28;20036;-86
2021/12/30 00:32:54;;;;;;;0.65;0.20;;;;;;;9.25;100.00;93038.06;2093967;28;20021;-87
2021/12/30 00:33:55;;;;;;;0.40;0.20;;;;;;;9.26;100.00;93044.13;2098248;28;20162;-85
2021/12/30 00:34:56;;;;;;;1.00;0.20;;;;;;;9.24;100.00;93051.81;2102146;28;20020;-85
2021/12/30 00:35:57;;;;;;;0.20;0.20;;;;;;;9.25;100.00;93054.06;2115148;28;20035;-87
2021/12/30 00:37:02;;;;;;;0.40;0.20;;;;;;;9.34;100.00;93059.59;2106762;28;20062;-86
2021/12/30 00:38:05;;;;;;;0.30;0.30;;;;;;;9.31;100.00;93055.09;2091105;28;20120;-86
2021/12/30 00:39:08;;;;;;;0.20;0.20;;;;;;;9.37;100.00;93059.97;2107821;28;20040;-86
2021/12/30 00:40:18;;;;;;;0.80;0.50;;;;;;;9.30;100.00;93058.16;2105491;28;20028;-87
2021/12/30 00:41:20;;;;;;;1.42;0.20;;;;;;;9.29;100.00;93056.66;2094978;28;20024;-87
2021/12/30 00:42:21;;;;;;;0.20;0.20;;;;;;;9.25;100.00;93054.06;2102598;27;20050;-87
2021/12/30 00:43:22;;;;;;;1.48;0.30;;;;;;;9.33;100.00;93057.34;2110527;28;20019;-89
2021/12/30 00:44:23;;;;;;;0.52;0.52;;;;;;;9.32;100.00;93064.59;2103128;28;20036;-87
2021/12/30 00:45:24;;;;;;;0.20;0.20;;;;;;;9.35;100.00;93068.38;2081751;28;20021;-87
2021/12/30 00:46:25;;;;;;;0.20;0.20;;;;;;;9.18;100.00;93061.44;2089958;28;20090;-88
2021/12/30 00:47:26;;;;;;;1.85;0.20;;;;;;;9.13;100.00;93064.56;2081647;28;20041;-87
2021/12/30 00:48:28;;;;;;;0.40;0.40;;;;;;;9.12;100.00;93065.72;2081770;28;20130;-85
2021/12/30 00:49:32;;;;;;;0.28;0.20;;;;;;;9.09;100.00;93059.31;2098019;28;20599;-86
2021/12/30 00:50:36;;;;;;;0.35;0.30;;;;;;;9.24;100.00;93065.88;2091464;28;20032;-86
2021/12/30 00:51:42;;;;;;;0.40;0.32;;;;;;;9.18;100.00;93058.78;2107165;28;20020;-87
2021/12/30 00:52:43;;;;;;;0.50;0.30;;;;;;;9.21;100.00;93055.28;2100993;28;20105;-86
2021/12/30 00:53:44;;;;;;;0.30;0.20;;;;;;;9.21;100.00;93053.34;2102161;28;20020;-88
2021/12/30 00:54:45;;;;;;;1.85;0.50;;;;;;;9.20;100.00;93051.84;2104492;28;20024;-86
2021/12/30 00:55:46;;;;;;;2.47;0.20;;;;;;;9.03;100.00;93060.91;2114962;28;20107;-87
2021/12/30 00:56:47;;;;;;;1.17;0.20;;;;;;;9.01;100.00;93060.59;2108241;28;20012;-85
2021/12/30 00:57:49;;;;;;;0.20;0.20;;;;;;;9.28;100.00;93063.91;2096617;28;20093;-86
2021/12/30 00:58:52;;;;;;;0.45;0.30;;;;;;;9.23;100.00;93067.06;2091244;28;20025;-86
2021/12/30 00:59:53;;;;;;;1.15;0.30;;;;;;;9.31;100.00;93070.34;2097449;28;20710;-87
2021/12/30 01:01:04;;;;;;;0.20;0.20;;;;;;;9.23;100.00;93067.06;2098852;28;20055;-86
2021/12/30 01:02:05;;;;;;;0.60;0.20;;;;;;;9.33;100.00;93082.09;2099629;28;20043;-84
2021/12/30 01:03:08;;;;;;;0.30;0.30;;;;;;;9.30;100.00;93084.84;2097086;28;20135;-85
2021/12/30 01:04:09;;;;;;;0.10;0.10;;;;;;;9.34;100.00;93085.53;2091149;28;20029;-85
2021/12/30 01:05:10;;;;;;;0.90;0.17;;;;;;;9.53;100.00;93094.75;2096891;28;20711;-87
2021/12/30 01:06:11;;;;;;;0.55;0.25;;;;;;;9.33;100.00;93079.44;2098020;28;20047;-87
2021/12/30 01:07:12;;;;;;;0.28;0.20;;;;;;;9.49;100.00;93094.03;2104581;28;20020;-86
2021/12/30 01:08:14;;;;;;;0.20;0.20;;;;;;;9.39;100.00;93090.38;2091228;28;20033;-86
2021/12/30 01:09:15;;;;;;;0.22;0.20;;;;;;;9.32;100.00;93091.28;2106684;27;20028;-86
2021/12/30 01:10:20;;;;;;;0.57;0.30;;;;;;;9.18;100.00;93090.78;2112640;28;20020;-86
2021/12/30 01:11:25;;;;;;;0.20;0.20;;;;;;;9.23;100.00;93090.31;2109339;27;20131;-87
2021/12/30 01:12:27;;;;;;;0.10;0.10;;;;;;;9.01;100.00;93097.91;2106913;28;20032;-84
2021/12/30 01:13:30;;;;;;;1.20;0.30;;;;;;;8.94;100.00;93096.09;2106734;27;20028;-86
2021/12/30 01:14:35;;;;;;;0.30;0.30;;;;;;;8.98;100.00;93091.47;2114825;28;20023;-85
2021/12/30 01:17:12;;;;;;;0.30;0.30;;;;;;;9.00;100.00;93105.16;2105574;28;20016;-87
2021/12/30 01:18:27;;;;;;;0.20;0.20;;;;;;;9.17;100.00;93103.34;2091545;28;20032;-85
2021/12/30 01:19:44;;;;;;;0.30;0.20;;;;;;;9.15;100.00;93104.91;2085551;28;20025;-86
2021/12/30 01:20:55;;;;;;;0.32;0.30;;;;;;;9.06;100.00;93098.19;2103392;28;20019;-85
2021/12/30 01:22:01;;;;;;;0.32;0.32;;;;;;;9.04;100.00;93099.75;2095421;28;20013;-86
2021/12/30 01:23:03;;;;;;;0.20;0.20;;;;;;;9.18;100.00;93104.09;2098563;28;20039;-85
2021/12/30 01:24:05;;;;;;;0.50;0.38;;;;;;;9.13;100.00;93102.66;2097973;28;20089;-87
2021/12/30 01:25:11;;;;;;;0.38;0.30;;;;;;;9.25;100.00;93098.63;2098025;28;20118;-85
2021/12/30 01:26:12;;;;;;;0.20;0.20;;;;;;;9.18;100.00;93106.78;2106158;28;20028;-85
2021/12/30 01:27:13;;;;;;;0.63;0.22;;;;;;;9.28;100.00;93101.25;2099114;28;20032;-85
2021/12/30 01:28:15;;;;;;;1.77;0.30;;;;;;;9.25;100.00;93110.06;2099315;28;20123;-86
2021/12/30 01:29:16;;;;;;;0.20;0.20;;;;;;;9.11;100.00;93107.63;2106334;28;20464;-85
2021/12/30 01:30:19;;;;;;;1.27;0.40;;;;;;;9.06;100.00;93116.09;2110273;28;20119;-85
2021/12/30 01:31:20;;;;;;;0.50;0.28;;;;;;;8.95;100.00;93121.59;2103905;28;20024;-86
2021/12/30 01:32:21;;;;;;;1.33;0.50;;;;;;;8.89;100.00;93128.53;2094452;28;20033;-86
2021/12/30 01:33:23;;;;;;;0.52;0.32;;;;;;;9.16;100.00;93117.09;2106314;28;20028;-86
2021/12/30 01:34:26;;;;;;;0.32;0.20;;;;;;;9.09;100.00;93123.28;2106244;28;20032;-85
2021/12/30 01:35:28;;;;;;;0.52;0.30;;;;;;;9.04;100.00;93127.19;2106614;28;20040;-86
2021/12/30 01:36:29;;;;;;;2.10;0.40;;;;;;;9.01;100.00;93114.66;2097777;28;20031;-86
2021/12/30 01:37:30;;;;;;;0.47;0.40;;;;;;;8.96;100.00;93112.44;2097869;28;20036;-86
2021/12/30 01:38:34;;;;;;;0.40;0.40;;;;;;;9.03;100.00;93122.25;2097935;28;20028;-86
2021/12/30 01:39:39;;;;;;;1.58;0.30;;;;;;;9.03;100.00;93116.91;2098215;28;20049;-86
2021/12/30 01:40:50;;;;;;;0.63;0.30;;;;;;;9.06;100.00;93129.44;2098363;28;20500;-85
2021/12/30 01:41:51;;;;;;;0.55;0.28;;;;;;;9.07;100.00;93122.94;2104123;27;20103;-83
2021/12/30 01:43:02;;;;;;;0.73;0.30;;;;;;;9.11;100.00;93125.56;2114455;28;20379;-84
2021/12/30 01:44:04;;;;;;;1.85;0.30;;;;;;;9.22;100.00;93118.13;2108942;27;20036;-87
2021/12/30 01:45:11;;;;;;;2.42;0.40;;;;;;;9.15;100.00;93115.59;2105984;28;20031;-86
2021/12/30 01:46:13;;;;;;;1.75;0.40;;;;;;;9.08;100.00;93119.84;2091146;28;20056;-87
2021/12/30 01:47:14;;;;;;;1.05;0.30;;;;;;;9.16;100.00;93130.41;2097631;28;20028;-84
2021/12/30 01:48:15;;;;;;;0.68;0.30;;;;;;;9.28;100.00;93127.19;2097598;28;20775;-87
2021/12/30 01:49:17;;;;;;;0.47;0.30;;;;;;;9.21;100.00;93135.28;2095370;28;20519;-88
2021/12/30 01:50:19;;;;;;;0.40;0.40;;;;;;;9.06;100.00;93135.50;2098032;28;20040;-86
2021/12/30 01:51:21;;;;;;;2.85;0.55;;;;;;;9.03;100.00;93133.66;2103487;28;20031;-84
2021/12/30 01:52:22;;;;;;;0.40;0.30;;;;;;;9.11;100.00;93141.53;2104188;28;20798;-86
2021/12/30 01:53:23;;;;;;;1.25;0.40;;;;;;;9.10;100.00;93134.72;2097405;28;20032;-86
2021/12/30 01:54:27;;;;;;;0.85;0.40;;;;;;;9.13;100.00;93139.22;2097917;28;20535;-85
2021/12/30 01:55:28;;;;;;;0.30;0.30;;;;;;;9.19;100.00;93145.63;2106594;28;20365;-87
2021/12/30 01:56:31;;;;;;;0.73;0.40;;;;;;;9.10;100.00;93138.13;2106308;28;20024;-87
2021/12/30 01:57:32;;;;;;;0.30;0.30;;;;;;;9.04;100.00;93140.50;2114396;28;20047;-85
2021/12/30 01:58:36;;;;;;;0.77;0.47;;;;;;;8.99;100.00;93146.28;2105932;28;20027;-86
2021/12/30 01:59:38;;;;;;;0.40;0.30;;;;;;;8.93;100.00;93147.91;2109408;28;20020;-86
2021/12/30 02:00:41;;;;;;;2.08;0.32;;;;;;;8.91;100.00;93138.78;2097747;28;20151;-86
2021/12/30 02:01:56;;;;;;;1.27;0.28;;;;;;;8.82;100.00;93147.28;2098316;28;20024;-86
2021/12/30 02:02:58;;;;;;;0.20;0.20;;;;;;;8.86;100.00;93153.34;2105788;28;20024;-86
2021/12/30 02:03:59;;;;;;;0.40;0.30;;;;;;;8.88;100.00;93168.94;2098035;28;20079;-86
2021/12/30 02:05:00;;;;;;;0.55;0.30;;;;;;;8.83;100.00;93157.56;2097561;28;20020;-86
2021/12/30 02:06:02;;;;;;;1.10;0.40;;;;;;;8.92;100.00;93156.31;2089129;28;20020;-87
2021/12/30 02:07:04;;;;;;;0.35;0.20;;;;;;;8.84;100.00;93166.31;2101750;28;20115;-85
2021/12/30 02:08:12;;;;;;;0.30;0.30;;;;;;;8.84;100.00;93161.00;2101468;28;20052;-88
2021/12/30 02:09:19;;;;;;;1.25;0.30;;;;;;;8.73;100.00;93161.13;2090071;28;20031;-87
2021/12/30 02:10:20;;;;;;;0.45;0.30;;;;;;;8.86;100.00;93164.00;2095474;28;20040;-88
2021/12/30 02:11:22;;;;;;;1.08;0.20;;;;;;;8.80;100.00;93170.94;2102578;28;20059;-87
2021/12/30 02:12:23;;;;;;;1.73;0.30;;;;;;;8.75;100.00;93174.81;2098716;28;20040;-87
2021/12/30 02:13:25;;;;;;;0.20;0.20;;;;;;;8.69;100.00;93175.66;2089387;28;20020;-85
2021/12/30 02:14:26;;;;;;;2.38;0.20;;;;;;;8.79;100.00;93172.09;2101684;28;20469;-87
2021/12/30 02:15:28;;;;;;;0.30;0.28;;;;;;;8.89;100.00;93176.53;2096717;28;20036;-85
2021/12/30 02:16:29;;;;;;;1.08;0.20;;;;;;;8.84;100.00;93171.66;2089961;28;20031;-87
2021/12/30 02:17:30;;;;;;;0.35;0.30;;;;;;;8.73;100.00;93174.44;2097691;28;20503;-86
2021/12/30 02:18:32;;;;;;;0.35;0.20;;;;;;;8.87;100.00;93180.75;2105727;28;20130;-86
2021/12/30 02:19:34;;;;;;;1.17;0.20;;;;;;;9.17;100.00;93169.25;2097556;28;20107;-85
2021/12/30 02:20:51;;;;;;;0.30;0.25;;;;;;;8.90;100.00;93169.28;2098283;28;20028;-87
2021/12/30 02:21:52;;;;;;;0.65;0.30;;;;;;;8.94;100.00;93172.66;2100601;28;20017;-87
2021/12/30 02:22:53;;;;;;;0.73;0.20;;;;;;;8.87;100.00;93176.19;2097510;28;20033;-85
2021/12/30 02:23:57;;;;;;;0.47;0.20;;;;;;;8.93;100.00;93171.91;2106000;28;20401;-86
2021/12/30 02:24:59;;;;;;;0.68;0.22;;;;;;;8.89;100.00;93168.53;2098070;28;20139;-86
2021/12/30 02:26:04;;;;;;;0.55;0.20;;;;;;;8.89;100.00;93168.53;2097669;28;20024;-86
2021/12/30 02:27:05;;;;;;;1.85;0.20;;;;;;;8.74;100.00;93172.56;2090744;28;20643;-86
2021/12/30 02:28:10;;;;;;;2.15;0.30;;;;;;;8.69;100.00;93181.00;2097468;28;20029;-84
2021/12/30 02:29:11;;;;;;;2.28;0.20;;;;;;;8.59;100.00;93182.66;2094163;28;20589;-86
2021/12/30 02:30:12;;;;;;;0.55;0.20;;;;;;;8.77;100.00;93179.75;2104535;28;20115;-86
2021/12/30 02:31:22;;;;;;;0.32;0.20;;;;;;;8.80;100.00;93186.94;2089266;28;20024;-86
2021/12/30 02:32:25;;;;;;;0.40;0.20;;;;;;;8.76;100.00;93175.56;2097021;28;20028;-85
2021/12/30 02:33:26;;;;;;;1.75;0.10;;;;;;;8.68;100.00;93179.47;2113824;28;20073;-88
2021/12/30 02:34:27;;;;;;;1.80;0.17;;;;;;;8.68;100.00;93182.16;2101788;28;20075;-86
2021/12/30 02:35:30;;;;;;;0.30;0.20;;;;;;;8.66;100.00;93181.81;2097516;28;20032;-87
2021/12/30 02:36:35;;;;;;;0.82;0.20;;;;;;;8.63;100.00;93177.28;2102252;28;20025;-85
2021/12/30 02:37:36;;;;;;;1.33;0.30;;;;;;;8.61;100.00;93179.59;2106770;28;20031;-85
2021/12/30 02:38:37;;;;;;;0.38;0.20;;;;;;;8.57;100.00;93182.31;2101987;28;20024;-88
2021/12/30 02:39:39;;;;;;;1.85;0.20;;;;;;;8.63;100.00;93178.03;2101151;28;20028;-86
2021/12/30 02:40:44;;;;;;;0.95;0.20;;;;;;;8.56;100.00;93173.56;2111061;28;20349;-87
2021/12/30 02:41:45;;;;;;;1.48;0.40;;;;;;;8.54;100.00;93181.19;2108165;28;20028;-87
2021/12/30 02:42:46;;;;;;;3.40;0.20;;;;;;;8.55;100.00;93174.69;2103427;28;20030;-86
2021/12/30 02:43:49;;;;;;;0.60;0.13;;;;;;;8.55;100.00;93180.03;2107876;28;20020;-85
2021/12/30 02:44:50;;;;;;;0.22;0.22;;;;;;;8.55;100.00;93185.34;2110661;28;20019;-87
2021/12/30 02:45:52;;;;;;;0.22;0.10;;;;;;;8.58;100.00;93191.78;2107520;28;20028;-86
2021/12/30 02:46:54;;;;;;;0.20;0.20;;;;;;;8.55;100.00;93189.94;2097626;28;20558;-86
2021/12/30 02:47:54;;;;;;;0.10;0.10;;;;;;;8.57;100.00;93193.72;2106106;28;20020;-86
2021/12/30 02:48:59;;;;;;;0.20;0.20;;;;;;;8.54;100.00;93193.75;2113971;28;20038;-86
2021/12/30 02:50:00;;;;;;;0.30;0.20;;;;;;;8.55;100.00;93193.34;2105684;28;20031;-84
2021/12/30 02:51:04;;;;;;;0.10;0.10;;;;;;;8.52;100.00;93198.75;2105233;28;20059;-84
2021/12/30 02:52:05;;;;;;;0.68;0.30;;;;;;;8.53;100.00;93205.56;2106397;28;20709;-86
2021/12/30 02:53:06;;;;;;;0.93;0.10;;;;;;;8.52;100.00;93201.41;2113621;28;20023;-85
2021/12/30 02:54:12;;;;;;;1.15;0.20;;;;;;;8.49;100.00;93204.84;2106362;28;20056;-85
2021/12/30 02:55:19;;;;;;;0.22;0.10;;;;;;;8.47;100.00;93204.47;2112770;28;20055;-86
2021/12/30 02:56:28;;;;;;;0.65;0.20;;;;;;;8.56;100.00;93205.53;2108014;28;20020;-86
2021/12/30 02:57:29;;;;;;;2.00;0.20;;;;;;;8.60;100.00;93205.47;2110374;28;20028;-87
2021/12/30 02:58:30;;;;;;;0.73;0.15;;;;;;;8.55;100.00;93197.91;2092847;28;20047;-87
2021/12/30 02:59:31;;;;;;;2.20;0.20;;;;;;;8.56;100.00;93191.47;2101325;28;20591;-86
2021/12/30 03:00:32;;;;;;;0.45;0.28;;;;;;;8.73;100.00;93197.69;2101505;28;20185;-87
2021/12/30 03:01:36;;;;;;;0.10;0.10;;;;;;;8.65;100.00;93194.38;2105806;28;20024;-87
2021/12/30 03:02:42;;;;;;;0.55;0.20;;;;;;;8.60;100.00;93194.06;2101692;28;20020;-87
2021/12/30 03:03:44;;;;;;;2.47;0.10;;;;;;;8.60;100.00;93196.72;2104434;27;20857;-88
2021/12/30 03:04:45;;;;;;;0.30;0.30;;;;;;;8.59;100.00;93203.97;2101523;28;20078;-86
2021/12/30 03:05:47;;;;;;;0.70;0.20;;;;;;;8.52;100.00;93204.81;2090753;28;20055;-86
2021/12/30 03:06:50;;;;;;;0.20;0.10;;;;;;;8.52;100.00;93204.06;2096998;28;20107;-86
2021/12/30 03:07:52;;;;;;;1.65;0.32;;;;;;;8.50;100.00;93206.34;2099248;28;20031;-86
2021/12/30 03:08:54;;;;;;;0.70;0.20;;;;;;;8.46;100.00;93201.06;2098827;28;20025;-86
2021/12/30 03:09:57;;;;;;;1.45;0.28;;;;;;;8.62;100.00;93199.75;2113319;28;20085;-86
2021/12/30 03:11:00;;;;;;;1.00;0.20;;;;;;;8.50;100.00;93201.78;2099711;28;20043;-87
2021/12/30 03:12:02;;;;;;;1.98;0.20;;;;;;;8.44;100.00;93197.31;2099230;28;20020;-87
2021/12/30 03:13:13;;;;;;;0.20;0.20;;;;;;;8.41;100.00;93193.53;2099102;28;20639;-84
2021/12/30 03:14:22;;;;;;;0.98;0.15;;;;;;;8.39;100.00;93193.19;2101977;28;20020;-84
2021/12/30 03:15:27;;;;;;;0.10;0.10;;;;;;;8.37;100.00;93189.41;2106701;28;20192;-85
2021/12/30 03:16:42;;;;;;;2.05;0.20;;;;;;;8.36;100.00;93191.28;2111378;27;20027;-85
2021/12/30 03:17:47;;;;;;;0.20;0.10;;;;;;;8.43;100.00;93188.56;2111761;27;20064;-84
2021/12/30 03:18:54;;;;;;;2.33;0.13;;;;;;;8.40;100.00;93176.03;2109907;28;20020;-86
2021/12/30 03:20:03;;;;;;;1.27;0.20;;;;;;;8.44;100.00;93179.41;2122856;27;20054;-87
2021/12/30 03:21:07;;;;;;;0.20;0.20;;;;;;;8.41;100.00;93176.78;2098715;28;20028;-85
2021/12/30 03:22:09;;;;;;;0.32;0.10;;;;;;;8.37;100.00;93182.16;2092331;28;20064;-87
2021/12/30 03:23:10;;;;;;;0.20;0.20;;;;;;;8.36;100.00;93179.88;2098063;28;20028;-86
2021/12/30 03:24:11;;;;;;;0.47;0.13;;;;;;;8.66;100.00;93165.81;2090900;28;20187;-84
2021/12/30 03:25:17;;;;;;;0.25;0.25;;;;;;;8.55;100.00;93179.28;2104340;28;20112;-87
2021/12/30 03:26:18;;;;;;;0.20;0.20;;;;;;;8.50;100.00;93177.81;2116244;27;20512;-86
2021/12/30 03:27:21;;;;;;;0.30;0.30;;;;;;;8.66;100.00;93187.13;2107209;28;20544;-87
2021/12/30 03:28:22;;;;;;;0.20;0.20;;;;;;;8.55;100.00;93193.34;2099395;28;20020;-86
2021/12/30 03:29:24;;;;;;;0.75;0.20;;;;;;;8.64;100.00;93198.19;2096051;28;21825;-86
2021/12/30 03:30:25;;;;;;;0.15;0.15;;;;;;;8.74;100.00;93191.22;2102043;28;20027;-86
2021/12/30 03:31:26;;;;;;;0.13;0.13;;;;;;;8.70;100.00;93195.84;2112547;28;20111;-86
2021/12/30 03:32:27;;;;;;;0.20;0.20;;;;;;;8.63;100.00;93194.00;2115457;28;20490;-87
2021/12/30 03:33:29;;;;;;;0.20;0.20;;;;;;;8.57;100.00;93201.69;2107253;28;20032;-87
2021/12/30 03:34:30;;;;;;;1.45;0.20;;;;;;;8.55;100.00;93209.31;2099069;28;20595;-87
2021/12/30 03:35:32;;;;;;;16.45;3.15;;;;;;;8.60;100.00;93204.72;2102865;28;20020;-86
2021/12/30 03:36:33;;;;;;;1.00;0.30;;;;;;;8.55;100.00;93219.22;2102957;28;20556;-87
2021/12/30 03:37:34;;;;;;;0.10;0.10;;;;;;;8.66;100.00;93211.13;2102993;28;20377;-86
2021/12/30 03:38:39;;;;;;;0.10;0.10;;;;;;;8.64;100.00;93219.50;2110899;28;20653;-86
2021/12/30 03:39:40;;;;;;;0.10;0.10;;;;;;;8.66;100.00;93224.44;2104225;28;20024;-85
2021/12/30 03:40:45;;;;;;;0.38;0.10;;;;;;;8.65;100.00;93230.91;2098957;28;20107;-87
2021/12/30 03:41:46;;;;;;;0.65;0.10;;;;;;;8.62;100.00;93221.06;2093519;28;20021;-86
2021/12/30 03:42:47;;;;;;;0.65;0.10;;;;;;;8.58;100.00;93219.19;2103799;28;20012;-85
2021/12/30 03:43:50;;;;;;;3.13;0.28;;;;;;;8.59;100.00;93219.94;2098878;28;20043;-86
2021/12/30 03:44:57;;;;;;;0.10;0.10;;;;;;;8.61;100.00;93227.56;2101721;28;20698;-86
2021/12/30 03:45:58;;;;;;;0.55;0.10;;;;;;;8.61;100.00;93224.88;2109397;28;20035;-87
2021/12/30 03:46:59;;;;;;;0.10;0.10;;;;;;;8.58;100.00;93216.53;2100900;28;20558;-85
2021/12/30 03:48:03;;;;;;;1.48;0.15;;;;;;;8.57;100.00;93223.03;2109697;28;20034;-85
2021/12/30 03:49:06;;;;;;;0.30;0.10;;;;;;;8.60;100.00;93221.44;2098669;28;20464;-85
2021/12/30 03:50:13;;;;;;;0.70;0.10;;;;;;;8.56;100.00;93221.50;2106616;28;20043;-87
2021/12/30 03:51:21;;;;;;;0.20;0.20;;;;;;;8.62;100.00;93219.16;2111640;28;20031;-85
2021/12/30 03:52:28;;;;;;;0.10;0.10;;;;;;;8.60;100.00;93226.78;2104330;27;20032;-86
2021/12/30 03:53:38;;;;;;;0.20;0.20;;;;;;;8.62;100.00;93224.47;2103176;28;20077;-87
2021/12/30 03:54:39;;;;;;;0.10;0.10;;;;;;;8.74;100.00;93218.63;2104134;28;20641;-86
2021/12/30 03:55:40;;;;;;;0.10;0.10;;;;;;;8.67;100.00;93223.28;2111833;28;20115;-86
2021/12/30 03:56:41;;;;;;;0.73;0.10;;;;;;;8.79;100.00;93225.41;2093280;28;20028;-86
2021/12/30 03:57:42;;;;;;;0.35;0.10;;;;;;;8.74;100.00;93225.88;2095507;28;20108;-86
2021/12/30 03:58:45;;;;;;;0.08;0.08;;;;;;;8.69;100.00;93227.06;2100969;28;20020;-86
2021/12/30 03:59:46;;;;;;;0.10;0.10;;;;;;;8.71;100.00;93231.97;2112844;27;20028;-86
2021/12/30 04:00:47;;;;;;;0.10;0.10;;;;;;;8.70;100.00;93233.91;2100307;28;20017;-86
2021/12/30 04:01:48;;;;;;;0.90;0.10;;;;;;;8.68;100.00;93232.78;2104078;28;20016;-85
2021/12/30 04:02:49;;;;;;;0.88;0.20;;;;;;;8.70;100.00;93235.81;2114373;28;20016;-86
2021/12/30 04:03:50;;;;;;;0.17;0.10;;;;;;;8.68;100.00;93244.19;2098837;28;20556;-86
2021/12/30 04:04:51;;;;;;;0.10;0.10;;;;;;;8.67;100.00;93242.69;2103832;27;20451;-89
2021/12/30 04:05:52;;;;;;;2.25;0.20;;;;;;;8.63;100.00;93241.97;2100595;28;20047;-86
2021/12/30 04:06:53;;;;;;;0.10;0.10;;;;;;;8.60;100.00;93248.09;2113426;28;20676;-85
2021/12/30 04:07:54;;;;;;;0.20;0.10;;;;;;;8.63;100.00;93252.63;2099730;28;20042;-86
2021/12/30 04:08:57;;;;;;;1.35;0.10;;;;;;;8.62;100.00;93247.72;2097224;28;20020;-85
2021/12/30 04:09:58;;;;;;;0.43;0.20;;;;;;;8.62;100.00;93253.78;2099571;28;20016;-86
2021/12/30 04:10:59;;;;;;;0.13;0.10;;;;;;;8.62;100.00;93255.69;2106213;28;20743;-86
2021/12/30 04:12:00;;;;;;;1.23;0.13;;;;;;;8.63;100.00;93257.97;2098701;28;20032;-85
2021/12/30 04:13:01;;;;;;;1.55;0.10;;;;;;;8.70;100.00;93257.13;2123302;27;20467;-87
2021/12/30 04:14:04;;;;;;;0.10;0.10;;;;;;;8.69;100.00;93253.72;2115228;28;20024;-85
2021/12/30 04:15:06;;;;;;;0.10;0.10;;;;;;;8.69;100.00;93255.59;2106820;28;20028;-89
2021/12/30 04:16:07;;;;;;;0.80;0.10;;;;;;;8.69;100.00;93258.25;2098536;28;20024;-86
2021/12/30 04:17:08;;;;;;;0.10;0.10;;;;;;;8.69;100.00;93255.59;2106163;28;20162;-87
2021/12/30 04:18:10;;;;;;;0.10;0.10;;;;;;;8.88;100.00;93252.31;2094147;28;20075;-87
2021/12/30 04:19:22;;;;;;;0.10;0.10;;;;;;;8.80;100.00;93253.56;2091349;28;20028;-86
2021/12/30 04:20:22;;;;;;;2.75;0.10;;;;;;;8.78;100.00;93247.88;2107127;28;20065;-85
2021/12/30 04:21:24;;;;;;;0.30;0.30;;;;;;;8.71;100.00;93247.97;2109480;28;20917;-87
2021/12/30 04:22:25;;;;;;;0.10;0.10;;;;;;;8.77;100.00;93255.09;2102655;27;20020;-84
2021/12/30 04:23:26;;;;;;;0.08;0.08;;;;;;;9.00;100.00;93257.13;2103545;28;20634;-85
2021/12/30 04:24:27;;;;;;;1.00;0.10;;;;;;;8.91;100.00;93262.19;2106853;28;20028;-87
2021/12/30 04:25:29;;;;;;;0.20;0.10;;;;;;;8.83;100.00;93264.19;2101770;28;20693;-86
2021/12/30 04:26:30;;;;;;;0.10;0.10;;;;;;;8.89;100.00;93263.72;2102740;28;20052;-86
2021/12/30 04:27:31;;;;;;;0.10;0.10;;;;;;;8.87;100.00;93260.69;2094640;28;20088;-87
2021/12/30 04:28:32;;;;;;;0.10;0.10;;;;;;;8.82;100.00;93260.03;2093784;28;20078;-87
2021/12/30 04:29:33;;;;;;;0.00;0.00;;;;;;;8.84;100.00;93259.59;2111086;28;20108;-88
2021/12/30 04:30:36;;;;;;;0.10;0.10;;;;;;;8.79;100.00;93257.41;2110775;28;20035;-86
2021/12/30 04:31:37;;;;;;;0.15;0.10;;;;;;;8.79;100.00;93266.13;2099630;27;20465;-84
2021/12/30 04:32:38;;;;;;;0.05;0.05;;;;;;;8.86;100.00;93262.63;2101956;28;20024;-86
2021/12/30 04:33:39;;;;;;;3.30;0.20;;;;;;;8.88;100.00;93262.22;2103349;28;20020;-84
2021/12/30 04:34:40;;;;;;;0.10;0.10;;;;;;;8.83;100.00;93261.53;2101547;28;20024;-86
2021/12/30 04:35:41;;;;;;;0.10;0.10;;;;;;;8.81;100.00;93260.41;2111915;28;20019;-87
2021/12/30 04:36:42;;;;;;;0.00;0.00;;;;;;;8.78;100.00;93269.97;2109697;28;20043;-86
2021/12/30 04:37:43;;;;;;;0.10;0.10;;;;;;;8.78;100.00;93269.19;2120484;27;20597;-86
2021/12/30 04:38:44;;;;;;;0.10;0.10;;;;;;;8.81;100.00;93279.06;2109369;28;20031;-85
2021/12/30 04:39:45;;;;;;;0.00;0.00;;;;;;;8.89;100.00;93271.72;2094217;28;20381;-87
2021/12/30 04:40:46;;;;;;;0.10;0.10;;;;;;;8.90;100.00;93275.91;2106646;28;20024;-87
2021/12/30 04:41:47;;;;;;;0.63;0.10;;;;;;;8.85;100.00;93277.09;2098232;28;20024;-85
2021/12/30 04:42:48;;;;;;;0.05;0.05;;;;;;;8.81;100.00;93277.16;2090032;28;20029;-85
2021/12/30 04:43:49;;;;;;;0.10;0.10;;;;;;;8.87;100.00;93277.47;2098040;28;20024;-86
2021/12/30 04:44:50;;;;;;;0.28;0.20;;;;;;;8.85;100.00;93277.09;2098187;28;20021;-86
2021/12/30 04:45:52;;;;;;;0.52;0.10;;;;;;;8.98;100.00;93280.00;2098117;28;20067;-86
2021/12/30 04:46:53;;;;;;;0.10;0.10;;;;;;;8.86;100.00;93286.59;2106568;28;20016;-85
2021/12/30 04:47:54;;;;;;;0.00;0.00;;;;;;;8.86;100.00;93286.59;2106539;28;20527;-86
2021/12/30 04:48:55;;;;;;;2.00;0.10;;;;;;;8.83;100.00;93290.84;2096898;28;20047;-88
2021/12/30 04:49:57;;;;;;;0.10;0.10;;;;;;;8.80;100.00;93288.97;2098260;28;20020;-88
2021/12/30 04:50:58;;;;;;;0.10;0.10;;;;;;;8.80;100.00;93293.53;2099417;28;20477;-87
2021/12/30 04:52:00;;;;;;;0.10;0.10;;;;;;;8.75;100.00;93288.66;2105739;28;20024;-85
2021/12/30 04:53:01;;;;;;;0.22;0.13;;;;;;;8.79;100.00;93298.13;2098623;28;20024;-85
2021/12/30 04:54:03;;;;;;;0.10;0.10;;;;;;;8.78;100.00;93306.50;2106584;28;20399;-86
2021/12/30 04:55:05;;;;;;;0.10;0.10;;;;;;;8.75;100.00;93301.97;2098204;28;20559;-87
2021/12/30 04:56:06;;;;;;;0.10;0.10;;;;;;;8.75;100.00;93296.66;2098341;28;20042;-84
2021/12/30 04:57:07;;;;;;;1.77;0.10;;;;;;;8.76;100.00;93306.16;2098531;28;20029;-86